Terminal Aerodrome Forecast
Issued by NWS

Home | Current Version | Previous Version | Text Only | Print | Product List | Glossary On
Versions: 1 2 3 4 5 6 7 8 9 10 11 12 13 14 15 16 17 18 19 20 21 22 23 24 25 26 27 28 29 30 31 32 33 34 35 36 37 38 39 40 41
000
FTUS46 KOTX 281745 CCA
TAFMWH
TAF COR
KMWH 281745Z 2818/2918 19010KT P6SM SKC WS015/24030KT
     FM282000 22015G26KT P6SM SCT070 OVC100
     FM290000 21016G25KT P6SM -RA BKN040 OVC080
     FM290400 24014KT P6SM SCT040 BKN080
     FM291200 32014KT P6SM SCT080=

USA.gov is the U.S. government's official web portal to all federal, state and local government web resources and services.